Gasconade River (Missouri), Rich Fountain (06934000)

StateMissouriLatestHigh (6520 cfs)
RiverGasconade RiverRatingObservedEstimated
Updated2024-06-14 22:30 (1 hour ago)Flood - The river is flooding. Obstacles can be treacherous or deadly. The river should be avoided at this stage for casual trips and definitely for the inexperienced. Trips should be attempted only with protective gear and equipment.Flood(none)13697
Discharge6520 cfs (median: 2110 cfs)High - The river is high and potentially dangerous, especially for the young and / or inexperienced. Normal stream obstacles are sometimes difficult to navigate. Extended distances can be attempted, but canoe travel may not be advisable.High(none)3059
Height6.47 feetGood - Conditions are ideal for a canoe or kayak. Boats typically will drag on fewer than one-quarter of riffles, if at all, and portages are unnecessary or rare. Normal float lengths can be attempted without a problem.Good(none)1928
TrendFalling (falling over 24 hours)Low - River is low but can still be floated. Some riffles are okay but most come with significant dragging and might need a portage. Float lengths should be reduced to accommodate low flow, dragging, and portages.Low(none)1046
USGSExternal icon USGS Site (External icon Duck Duck Go Maps)Poor - River is too low to float comfortably. Most or all riffles will drag or must be portaged and some obstacles (such as slick shelf rock) cause undue problems. Avoid the river at this stage for casual paddling trips.Poor(none)482

Trending Data

Plot Image

Trips for Gasconade River (Missouri), Rich Fountain (06934000)

DateStartEndDistanceConditionDischargeHeightFishingDetails

A total of 0 rows are displayed.

Condition Descriptions

Fishing Conditions

Fish Species

Notes

Classic Trip List

The classic River Trips application is still available for use. It is updated with the new system using a data retrofit. It is no longer maintained. The original River Trips application is no longer updated (as of 1 Dec 2016) but can be checked for errors or for the condition of the data before it was converted to the new system.

Gauge Data Table

ObservationHeightDischargeMaximum
Discharge
Minimum
Discharge
Mean
Discharge
P05P10P20P25P50
(Median)
P75P80P90P95
2024-06-14 22:30 6.47 6520 18700 (1942) 498 (2000) 3440 750 847 1080 1130 2100 3660 4840 8490 12400
2024-06-14 21:30 6.51 6600 18700 (1942) 498 (2000) 3440 750 847 1080 1130 2100 3660 4840 8490 12400
2024-06-14 20:30 6.54 6650 18700 (1942) 498 (2000) 3440 750 847 1080 1130 2100 3660 4840 8490 12400
2024-06-14 19:30 6.58 6730 18700 (1942) 498 (2000) 3440 750 847 1080 1130 2100 3660 4840 8490 12400
2024-06-14 18:30 6.63 6820 18700 (1942) 498 (2000) 3440 750 847 1080 1130 2100 3660 4840 8490 12400
2024-06-14 17:30 6.67 6900 18700 (1942) 498 (2000) 3440 750 847 1080 1130 2100 3660 4840 8490 12400
2024-06-14 16:30 6.72 7000 18700 (1942) 498 (2000) 3440 750 847 1080 1130 2100 3660 4840 8490 12400
2024-06-14 15:30 6.78 7110 18700 (1942) 498 (2000) 3440 750 847 1080 1130 2100 3660 4840 8490 12400
2024-06-14 14:30 6.83 7210 18700 (1942) 498 (2000) 3440 750 847 1080 1130 2100 3660 4840 8490 12400
2024-06-14 13:30 6.88 7310 18700 (1942) 498 (2000) 3440 750 847 1080 1130 2100 3660 4840 8490 12400
2024-06-14 12:30 7.08 7700 18700 (1942) 498 (2000) 3440 750 847 1080 1130 2100 3660 4840 8490 12400
2024-06-14 11:30 7.14 7820 18700 (1942) 498 (2000) 3440 750 847 1080 1130 2100 3660 4840 8490 12400
2024-06-14 10:30 7.18 7900 18700 (1942) 498 (2000) 3440 750 847 1080 1130 2100 3660 4840 8490 12400
2024-06-14 09:30 7.28 8110 18700 (1942) 498 (2000) 3440 750 847 1080 1130 2100 3660 4840 8490 12400
2024-06-14 08:30 7.29 8130 18700 (1942) 498 (2000) 3440 750 847 1080 1130 2100 3660 4840 8490 12400
2024-06-14 07:30 7.37 8290 18700 (1942) 498 (2000) 3440 750 847 1080 1130 2100 3660 4840 8490 12400
2024-06-14 06:30 7.45 8460 18700 (1942) 498 (2000) 3440 750 847 1080 1130 2100 3660 4840 8490 12400
2024-06-14 05:30 7.50 8560 18700 (1942) 498 (2000) 3440 750 847 1080 1130 2100 3660 4840 8490 12400
2024-06-14 04:30 7.59 8750 18700 (1942) 498 (2000) 3440 750 847 1080 1130 2100 3660 4840 8490 12400
2024-06-14 03:30 7.70 8980 18700 (1942) 498 (2000) 3440 750 847 1080 1130 2100 3660 4840 8490 12400
2024-06-14 02:30 7.80 9200 18700 (1942) 498 (2000) 3440 750 847 1080 1130 2100 3660 4840 8490 12400
2024-06-14 01:30 7.94 9500 18700 (1942) 498 (2000) 3440 750 847 1080 1130 2100 3660 4840 8490 12400
2024-06-14 00:30 8.10 9840 18700 (1942) 498 (2000) 3440 750 847 1080 1130 2100 3660 4840 8490 12400
2024-06-13 23:30 8.33 10300 18700 (1942) 498 (2000) 3440 750 847 1080 1130 2100 3660 4840 8490 12400
2024-06-13 22:30 8.70 11000 26400 (1928) 494 (2000) 3830 776 858 1110 1160 2340 3700 5800 10300 13200
2024-06-13 21:30 9.16 12000 26400 (1928) 494 (2000) 3830 776 858 1110 1160 2340 3700 5800 10300 13200
2024-06-13 20:30 9.77 13300 26400 (1928) 494 (2000) 3830 776 858 1110 1160 2340 3700 5800 10300 13200
2024-06-13 19:30 10.52 14900 26400 (1928) 494 (2000) 3830 776 858 1110 1160 2340 3700 5800 10300 13200
2024-06-13 18:30 11.43 17000 26400 (1928) 494 (2000) 3830 776 858 1110 1160 2340 3700 5800 10300 13200
2024-06-13 17:30 12.30 19000 26400 (1928) 494 (2000) 3830 776 858 1110 1160 2340 3700 5800 10300 13200
2024-06-13 16:30 13.28 21500 26400 (1928) 494 (2000) 3830 776 858 1110 1160 2340 3700 5800 10300 13200
2024-06-13 15:30 14.21 23800 26400 (1928) 494 (2000) 3830 776 858 1110 1160 2340 3700 5800 10300 13200
2024-06-13 14:30 15.06 26100 26400 (1928) 494 (2000) 3830 776 858 1110 1160 2340 3700 5800 10300 13200
2024-06-13 13:30 15.79 28100 26400 (1928) 494 (2000) 3830 776 858 1110 1160 2340 3700 5800 10300 13200
2024-06-13 12:30 16.41 29800 26400 (1928) 494 (2000) 3830 776 858 1110 1160 2340 3700 5800 10300 13200
2024-06-13 11:30 16.83 31000 26400 (1928) 494 (2000) 3830 776 858 1110 1160 2340 3700 5800 10300 13200
2024-06-13 10:30 17.24 32200 26400 (1928) 494 (2000) 3830 776 858 1110 1160 2340 3700 5800 10300 13200
2024-06-13 09:30 17.47 32800 26400 (1928) 494 (2000) 3830 776 858 1110 1160 2340 3700 5800 10300 13200
2024-06-13 08:30 17.65 33400 26400 (1928) 494 (2000) 3830 776 858 1110 1160 2340 3700 5800 10300 13200
2024-06-13 07:30 17.75 33600 26400 (1928) 494 (2000) 3830 776 858 1110 1160 2340 3700 5800 10300 13200
2024-06-13 06:30 17.81 33800 26400 (1928) 494 (2000) 3830 776 858 1110 1160 2340 3700 5800 10300 13200
2024-06-13 05:30 17.82 33800 26400 (1928) 494 (2000) 3830 776 858 1110 1160 2340 3700 5800 10300 13200
2024-06-13 04:30 17.78 33700 26400 (1928) 494 (2000) 3830 776 858 1110 1160 2340 3700 5800 10300 13200
2024-06-13 03:30 17.72 33600 26400 (1928) 494 (2000) 3830 776 858 1110 1160 2340 3700 5800 10300 13200
2024-06-13 02:30 17.66 33400 26400 (1928) 494 (2000) 3830 776 858 1110 1160 2340 3700 5800 10300 13200
2024-06-13 01:30 17.57 33100 26400 (1928) 494 (2000) 3830 776 858 1110 1160 2340 3700 5800 10300 13200
2024-06-13 00:30 17.46 32800 26400 (1928) 494 (2000) 3830 776 858 1110 1160 2340 3700 5800 10300 13200
2024-06-12 23:30 17.37 32500 26400 (1928) 494 (2000) 3830 776 858 1110 1160 2340 3700 5800 10300 13200
2024-06-12 22:30 17.25 32200 41600 (1928) 490 (2000) 4360 760 856 1180 1260 2500 4630 5690 9390 18600
2024-06-12 21:30 17.16 31900 41600 (1928) 490 (2000) 4360 760 856 1180 1260 2500 4630 5690 9390 18600
2024-06-12 20:30 17.07 31700 41600 (1928) 490 (2000) 4360 760 856 1180 1260 2500 4630 5690 9390 18600
2024-06-12 19:30 16.96 31400 41600 (1928) 490 (2000) 4360 760 856 1180 1260 2500 4630 5690 9390 18600
2024-06-12 18:30 16.87 31100 41600 (1928) 490 (2000) 4360 760 856 1180 1260 2500 4630 5690 9390 18600
2024-06-12 17:30 16.81 30900 41600 (1928) 490 (2000) 4360 760 856 1180 1260 2500 4630 5690 9390 18600
2024-06-12 16:30 16.71 30600 41600 (1928) 490 (2000) 4360 760 856 1180 1260 2500 4630 5690 9390 18600
2024-06-12 15:30 16.62 30400 41600 (1928) 490 (2000) 4360 760 856 1180 1260 2500 4630 5690 9390 18600
2024-06-12 14:30 16.52 30100 41600 (1928) 490 (2000) 4360 760 856 1180 1260 2500 4630 5690 9390 18600
2024-06-12 13:30 16.49 30000 41600 (1928) 490 (2000) 4360 760 856 1180 1260 2500 4630 5690 9390 18600
2024-06-12 12:30 16.42 29800 41600 (1928) 490 (2000) 4360 760 856 1180 1260 2500 4630 5690 9390 18600
2024-06-12 11:30 16.37 29700 41600 (1928) 490 (2000) 4360 760 856 1180 1260 2500 4630 5690 9390 18600
2024-06-12 10:30 16.31 29500 41600 (1928) 490 (2000) 4360 760 856 1180 1260 2500 4630 5690 9390 18600
2024-06-12 09:30 16.28 29400 41600 (1928) 490 (2000) 4360 760 856 1180 1260 2500 4630 5690 9390 18600
2024-06-12 08:30 16.23 29300 41600 (1928) 490 (2000) 4360 760 856 1180 1260 2500 4630 5690 9390 18600
2024-06-12 07:30 16.16 29100 41600 (1928) 490 (2000) 4360 760 856 1180 1260 2500 4630 5690 9390 18600
2024-06-12 06:30 16.09 28900 41600 (1928) 490 (2000) 4360 760 856 1180 1260 2500 4630 5690 9390 18600
2024-06-12 05:30 16.03 28700 41600 (1928) 490 (2000) 4360 760 856 1180 1260 2500 4630 5690 9390 18600
2024-06-12 04:30 15.95 28500 41600 (1928) 490 (2000) 4360 760 856 1180 1260 2500 4630 5690 9390 18600
2024-06-12 03:30 15.89 28400 41600 (1928) 490 (2000) 4360 760 856 1180 1260 2500 4630 5690 9390 18600
2024-06-12 02:30 15.80 28100 41600 (1928) 490 (2000) 4360 760 856 1180 1260 2500 4630 5690 9390 18600
2024-06-12 01:30 15.70 27800 41600 (1928) 490 (2000) 4360 760 856 1180 1260 2500 4630 5690 9390 18600
2024-06-12 00:30 15.61 27600 41600 (1928) 490 (2000) 4360 760 856 1180 1260 2500 4630 5690 9390 18600
2024-06-11 23:30 15.50 27300 41600 (1928) 490 (2000) 4360 760 856 1180 1260 2500 4630 5690 9390 18600
2024-06-11 22:30 15.35 26900 45100 (1928) 475 (2000) 4600 805 925 1230 1260 2470 4760 5620 10600 16300
2024-06-11 21:30 15.25 26600 45100 (1928) 475 (2000) 4600 805 925 1230 1260 2470 4760 5620 10600 16300
2024-06-11 20:30 15.11 26200 45100 (1928) 475 (2000) 4600 805 925 1230 1260 2470 4760 5620 10600 16300
2024-06-11 19:30 14.95 25800 45100 (1928) 475 (2000) 4600 805 925 1230 1260 2470 4760 5620 10600 16300
2024-06-11 18:30 14.85 25500 45100 (1928) 475 (2000) 4600 805 925 1230 1260 2470 4760 5620 10600 16300
2024-06-11 17:30 14.69 25100 45100 (1928) 475 (2000) 4600 805 925 1230 1260 2470 4760 5620 10600 16300
2024-06-11 16:30 14.53 24700 45100 (1928) 475 (2000) 4600 805 925 1230 1260 2470 4760 5620 10600 16300
2024-06-11 15:30 14.41 24400 45100 (1928) 475 (2000) 4600 805 925 1230 1260 2470 4760 5620 10600 16300
2024-06-11 14:30 14.25 23900 45100 (1928) 475 (2000) 4600 805 925 1230 1260 2470 4760 5620 10600 16300
2024-06-11 13:30 14.08 23500 45100 (1928) 475 (2000) 4600 805 925 1230 1260 2470 4760 5620 10600 16300
2024-06-11 12:30 14.02 23300 45100 (1928) 475 (2000) 4600 805 925 1230 1260 2470 4760 5620 10600 16300
2024-06-11 11:30 13.88 23000 45100 (1928) 475 (2000) 4600 805 925 1230 1260 2470 4760 5620 10600 16300
2024-06-11 10:30 13.67 22400 45100 (1928) 475 (2000) 4600 805 925 1230 1260 2470 4760 5620 10600 16300
2024-06-11 09:30 13.50 22000 45100 (1928) 475 (2000) 4600 805 925 1230 1260 2470 4760 5620 10600 16300
2024-06-11 08:30 13.33 21600 45100 (1928) 475 (2000) 4600 805 925 1230 1260 2470 4760 5620 10600 16300
2024-06-11 07:30 13.17 21200 45100 (1928) 475 (2000) 4600 805 925 1230 1260 2470 4760 5620 10600 16300
2024-06-11 06:30 13.03 20800 45100 (1928) 475 (2000) 4600 805 925 1230 1260 2470 4760 5620 10600 16300
2024-06-11 05:30 12.91 20500 45100 (1928) 475 (2000) 4600 805 925 1230 1260 2470 4760 5620 10600 16300
2024-06-11 04:30 12.75 20100 45100 (1928) 475 (2000) 4600 805 925 1230 1260 2470 4760 5620 10600 16300
2024-06-11 03:30 12.57 19700 45100 (1928) 475 (2000) 4600 805 925 1230 1260 2470 4760 5620 10600 16300
2024-06-11 02:30 12.47 19500 45100 (1928) 475 (2000) 4600 805 925 1230 1260 2470 4760 5620 10600 16300
2024-06-11 01:30 12.30 19000 45100 (1928) 475 (2000) 4600 805 925 1230 1260 2470 4760 5620 10600 16300
2024-06-11 00:30 12.15 18700 45100 (1928) 475 (2000) 4600 805 925 1230 1260 2470 4760 5620 10600 16300
2024-06-10 23:30 12.00 18300 45100 (1928) 475 (2000) 4600 805 925 1230 1260 2470 4760 5620 10600 16300
2024-06-10 22:30 11.86 18000 26200 (1928) 477 (2000) 3960 805 884 1230 1280 2330 3530 4070 12100 15100
2024-06-10 21:30 11.69 17600 26200 (1928) 477 (2000) 3960 805 884 1230 1280 2330 3530 4070 12100 15100
2024-06-10 20:30 11.54 17200 26200 (1928) 477 (2000) 3960 805 884 1230 1280 2330 3530 4070 12100 15100
2024-06-10 19:30 11.35 16800 26200 (1928) 477 (2000) 3960 805 884 1230 1280 2330 3530 4070 12100 15100
2024-06-10 18:30 11.14 16300 26200 (1928) 477 (2000) 3960 805 884 1230 1280 2330 3530 4070 12100 15100
2024-06-10 17:30 10.95 15900 26200 (1928) 477 (2000) 3960 805 884 1230 1280 2330 3530 4070 12100 15100
2024-06-10 16:30 10.75 15400 26200 (1928) 477 (2000) 3960 805 884 1230 1280 2330 3530 4070 12100 15100
2024-06-10 15:30 10.51 14900 26200 (1928) 477 (2000) 3960 805 884 1230 1280 2330 3530 4070 12100 15100
2024-06-10 14:30 10.29 14400 26200 (1928) 477 (2000) 3960 805 884 1230 1280 2330 3530 4070 12100 15100
2024-06-10 13:30 10.02 13800 26200 (1928) 477 (2000) 3960 805 884 1230 1280 2330 3530 4070 12100 15100
2024-06-10 12:30 9.77 13300 26200 (1928) 477 (2000) 3960 805 884 1230 1280 2330 3530 4070 12100 15100
2024-06-10 11:30 9.62 12900 26200 (1928) 477 (2000) 3960 805 884 1230 1280 2330 3530 4070 12100 15100
2024-06-10 10:30 9.33 12300 26200 (1928) 477 (2000) 3960 805 884 1230 1280 2330 3530 4070 12100 15100
2024-06-10 09:30 9.12 11900 26200 (1928) 477 (2000) 3960 805 884 1230 1280 2330 3530 4070 12100 15100
2024-06-10 08:30 8.95 11500 26200 (1928) 477 (2000) 3960 805 884 1230 1280 2330 3530 4070 12100 15100
2024-06-10 07:30 8.73 11100 26200 (1928) 477 (2000) 3960 805 884 1230 1280 2330 3530 4070 12100 15100
2024-06-10 06:30 8.60 10800 26200 (1928) 477 (2000) 3960 805 884 1230 1280 2330 3530 4070 12100 15100
2024-06-10 05:30 8.44 10500 26200 (1928) 477 (2000) 3960 805 884 1230 1280 2330 3530 4070 12100 15100
2024-06-10 04:30 8.32 10300 26200 (1928) 477 (2000) 3960 805 884 1230 1280 2330 3530 4070 12100 15100
2024-06-10 03:30 8.14 9920 26200 (1928) 477 (2000) 3960 805 884 1230 1280 2330 3530 4070 12100 15100
2024-06-10 02:30 7.95 9520 26200 (1928) 477 (2000) 3960 805 884 1230 1280 2330 3530 4070 12100 15100
2024-06-10 01:30 7.74 9070 26200 (1928) 477 (2000) 3960 805 884 1230 1280 2330 3530 4070 12100 15100
2024-06-10 00:30 7.49 8540 26200 (1928) 477 (2000) 3960 805 884 1230 1280 2330 3530 4070 12100 15100
2024-06-09 23:30 7.14 7820 26200 (1928) 477 (2000) 3960 805 884 1230 1280 2330 3530 4070 12100 15100
2024-06-09 22:30 6.80 7150 33800 (1945) 484 (2000) 3850 802 876 1050 1220 2190 3740 4690 8710 15700
2024-06-09 21:30 6.49 6560 33800 (1945) 484 (2000) 3850 802 876 1050 1220 2190 3740 4690 8710 15700
2024-06-09 20:30 6.20 6020 33800 (1945) 484 (2000) 3850 802 876 1050 1220 2190 3740 4690 8710 15700
2024-06-09 19:30 5.87 5430 33800 (1945) 484 (2000) 3850 802 876 1050 1220 2190 3740 4690 8710 15700
2024-06-09 18:30 5.65 5060 33800 (1945) 484 (2000) 3850 802 876 1050 1220 2190 3740 4690 8710 15700
2024-06-09 17:30 5.49 4790 33800 (1945) 484 (2000) 3850 802 876 1050 1220 2190 3740 4690 8710 15700
2024-06-09 16:30 5.29 4460 33800 (1945) 484 (2000) 3850 802 876 1050 1220 2190 3740 4690 8710 15700
2024-06-09 15:30 5.20 4320 33800 (1945) 484 (2000) 3850 802 876 1050 1220 2190 3740 4690 8710 15700
2024-06-09 14:30 5.16 4250 33800 (1945) 484 (2000) 3850 802 876 1050 1220 2190 3740 4690 8710 15700
2024-06-09 13:30 5.14 4220 33800 (1945) 484 (2000) 3850 802 876 1050 1220 2190 3740 4690 8710 15700
2024-06-09 12:30 5.13 4200 33800 (1945) 484 (2000) 3850 802 876 1050 1220 2190 3740 4690 8710 15700
2024-06-09 11:30 5.26 4410 33800 (1945) 484 (2000) 3850 802 876 1050 1220 2190 3740 4690 8710 15700
2024-06-09 10:30 5.24 4380 33800 (1945) 484 (2000) 3850 802 876 1050 1220 2190 3740 4690 8710 15700
2024-06-09 09:30 5.28 4440 33800 (1945) 484 (2000) 3850 802 876 1050 1220 2190 3740 4690 8710 15700
2024-06-09 08:30 5.30 4480 33800 (1945) 484 (2000) 3850 802 876 1050 1220 2190 3740 4690 8710 15700
2024-06-09 07:30 5.30 4480 33800 (1945) 484 (2000) 3850 802 876 1050 1220 2190 3740 4690 8710 15700
2024-06-09 06:30 5.35 4560 33800 (1945) 484 (2000) 3850 802 876 1050 1220 2190 3740 4690 8710 15700
2024-06-09 05:30 5.38 4610 33800 (1945) 484 (2000) 3850 802 876 1050 1220 2190 3740 4690 8710 15700
2024-06-09 04:30 5.43 4690 33800 (1945) 484 (2000) 3850 802 876 1050 1220 2190 3740 4690 8710 15700
2024-06-09 03:30 5.48 4770 33800 (1945) 484 (2000) 3850 802 876 1050 1220 2190 3740 4690 8710 15700
2024-06-09 02:30 5.57 4920 33800 (1945) 484 (2000) 3850 802 876 1050 1220 2190 3740 4690 8710 15700
2024-06-09 01:30 5.65 5060 33800 (1945) 484 (2000) 3850 802 876 1050 1220 2190 3740 4690 8710 15700
2024-06-09 00:30 5.71 5160 33800 (1945) 484 (2000) 3850 802 876 1050 1220 2190 3740 4690 8710 15700
2024-06-08 23:30 5.64 5040 33800 (1945) 484 (2000) 3850 802 876 1050 1220 2190 3740 4690 8710 15700
2024-06-08 22:30 5.46 4740 24300 (1945) 498 (2000) 3420 775 905 1140 1230 2380 4000 4320 7280 9420
2024-06-08 21:30 5.43 4690 24300 (1945) 498 (2000) 3420 775 905 1140 1230 2380 4000 4320 7280 9420
2024-06-08 20:30 5.44 4700 24300 (1945) 498 (2000) 3420 775 905 1140 1230 2380 4000 4320 7280 9420
2024-06-08 19:30 5.30 4480 24300 (1945) 498 (2000) 3420 775 905 1140 1230 2380 4000 4320 7280 9420
2024-06-08 18:30 5.31 4490 24300 (1945) 498 (2000) 3420 775 905 1140 1230 2380 4000 4320 7280 9420
2024-06-08 17:30 5.33 4520 24300 (1945) 498 (2000) 3420 775 905 1140 1230 2380 4000 4320 7280 9420
2024-06-08 16:30 5.34 4540 24300 (1945) 498 (2000) 3420 775 905 1140 1230 2380 4000 4320 7280 9420
2024-06-08 15:30 5.37 4590 24300 (1945) 498 (2000) 3420 775 905 1140 1230 2380 4000 4320 7280 9420
2024-06-08 14:30 5.38 4610 24300 (1945) 498 (2000) 3420 775 905 1140 1230 2380 4000 4320 7280 9420
2024-06-08 13:30 5.40 4640 24300 (1945) 498 (2000) 3420 775 905 1140 1230 2380 4000 4320 7280 9420
2024-06-08 12:30 5.43 4690 24300 (1945) 498 (2000) 3420 775 905 1140 1230 2380 4000 4320 7280 9420
2024-06-08 11:30 5.44 4700 24300 (1945) 498 (2000) 3420 775 905 1140 1230 2380 4000 4320 7280 9420
2024-06-08 10:30 5.48 4770 24300 (1945) 498 (2000) 3420 775 905 1140 1230 2380 4000 4320 7280 9420
2024-06-08 09:30 5.49 4790 24300 (1945) 498 (2000) 3420 775 905 1140 1230 2380 4000 4320 7280 9420
2024-06-08 08:30 5.51 4820 24300 (1945) 498 (2000) 3420 775 905 1140 1230 2380 4000 4320 7280 9420
2024-06-08 07:30 5.52 4840 24300 (1945) 498 (2000) 3420 775 905 1140 1230 2380 4000 4320 7280 9420
2024-06-08 06:30 5.53 4850 24300 (1945) 498 (2000) 3420 775 905 1140 1230 2380 4000 4320 7280 9420
2024-06-08 05:30 5.52 4840 24300 (1945) 498 (2000) 3420 775 905 1140 1230 2380 4000 4320 7280 9420
2024-06-08 04:30 5.53 4850 24300 (1945) 498 (2000) 3420 775 905 1140 1230 2380 4000 4320 7280 9420
2024-06-08 03:30 5.55 4890 24300 (1945) 498 (2000) 3420 775 905 1140 1230 2380 4000 4320 7280 9420
2024-06-08 02:30 5.57 4920 24300 (1945) 498 (2000) 3420 775 905 1140 1230 2380 4000 4320 7280 9420
2024-06-08 01:30 5.63 5020 24300 (1945) 498 (2000) 3420 775 905 1140 1230 2380 4000 4320 7280 9420
2024-06-08 00:30 5.61 4990 24300 (1945) 498 (2000) 3420 775 905 1140 1230 2380 4000 4320 7280 9420
2024-06-07 23:30 5.65 5060 24300 (1945) 498 (2000) 3420 775 905 1140 1230 2380 4000 4320 7280 9420

A total of 168 rows are displayed for years 1922 through 2023.